createdAt,value
2022-08-09T00:00:05.003Z,99.90
2022-08-09T00:02:35.118Z,99.90
2022-08-09T00:06:19.117Z,99.90
2022-08-09T00:07:54.435Z,99.90
2022-08-09T00:10:24.468Z,99.90
2022-08-09T00:12:53.539Z,99.90
2022-08-09T00:15:35.366Z,99.90
2022-08-09T00:18:12.501Z,99.90
2022-08-09T00:20:50.056Z,99.90
2022-08-09T00:23:55.016Z,99.90
2022-08-09T00:26:10.974Z,99.90
2022-08-09T00:28:40.846Z,99.90
2022-08-09T00:31:50.497Z,99.90
2022-08-09T00:33:57.858Z,99.90
2022-08-09T00:36:30.859Z,99.90
2022-08-09T00:38:59.307Z,99.90
2022-08-09T00:44:16.199Z,99.90
2022-08-09T00:44:25.583Z,99.90
2022-08-09T00:47:01.790Z,99.90
2022-08-09T00:49:34.646Z,99.90
2022-08-09T00:52:06.157Z,99.90
2022-08-09T00:54:45.229Z,99.90
2022-08-09T00:57:24.638Z,99.90
2022-08-09T01:00:02.998Z,99.90
2022-08-09T01:02:34.813Z,99.90
2022-08-09T01:05:13.915Z,99.90
2022-08-09T01:08:00.102Z,99.90
2022-08-09T01:10:40.036Z,99.90
2022-08-09T01:13:24.557Z,99.90
2022-08-09T01:16:04.950Z,99.90
2022-08-09T01:18:38.417Z,99.90
2022-08-09T01:21:28.311Z,99.90
2022-08-09T01:24:26.799Z,99.90
2022-08-09T01:27:03.950Z,99.90
2022-08-09T01:29:56.365Z,99.90
2022-08-09T01:32:34.100Z,99.90
2022-08-09T01:35:28.990Z,99.90
2022-08-09T01:38:10.655Z,99.90
2022-08-09T01:40:52.403Z,99.90
2022-08-09T01:43:50.781Z,99.90
2022-08-09T01:46:26.326Z,99.90
2022-08-09T01:48:59.982Z,99.90
2022-08-09T01:51:44.700Z,99.90
2022-08-09T01:54:27.224Z,99.90
2022-08-09T01:57:08.112Z,99.90
2022-08-09T01:59:51.621Z,99.90
2022-08-09T02:02:31.117Z,99.90
2022-08-09T02:05:05.841Z,99.90
2022-08-09T02:08:39.490Z,99.90
2022-08-09T02:10:42.845Z,99.90
2022-08-09T02:13:25.958Z,99.90
2022-08-09T02:16:09.020Z,99.90
2022-08-09T02:18:42.947Z,99.90
2022-08-09T02:21:22.632Z,99.90
2022-08-09T02:23:56.516Z,99.90
2022-08-09T02:26:29.130Z,99.90
2022-08-09T02:29:03.062Z,99.90
2022-08-09T02:31:41.792Z,99.90
2022-08-09T02:34:26.028Z,99.90
2022-08-09T02:37:09.290Z,99.90
2022-08-09T02:39:49.761Z,99.90
2022-08-09T02:42:30.525Z,99.90
2022-08-09T02:45:06.851Z,99.90
2022-08-09T02:47:57.299Z,99.90
2022-08-09T02:50:34.590Z,99.90
2022-08-09T02:53:10.700Z,99.90
2022-08-09T02:55:58.796Z,99.90
2022-08-09T02:58:36.009Z,99.90
2022-08-09T03:01:11.060Z,99.90
2022-08-09T03:04:17.449Z,99.90
2022-08-09T03:06:37.433Z,99.90
2022-08-09T03:09:09.007Z,99.90
2022-08-09T03:12:05.856Z,99.90
2022-08-09T03:14:32.130Z,99.90
2022-08-09T03:17:02.108Z,99.90
2022-08-09T03:19:59.278Z,99.90
2022-08-09T03:22:30.729Z,99.90
2022-08-09T03:25:06.324Z,99.90
2022-08-09T03:27:52.324Z,99.90
2022-08-09T03:30:30.026Z,99.90
2022-08-09T03:33:13.131Z,99.90
2022-08-09T03:36:13.936Z,99.90
2022-08-09T03:38:42.512Z,99.90
2022-08-09T03:41:15.416Z,99.90
2022-08-09T03:44:02.992Z,99.90
2022-08-09T03:46:34.692Z,99.90
2022-08-09T03:49:09.066Z,99.90
2022-08-09T03:51:58.864Z,99.90
2022-08-09T03:54:34.451Z,99.90
2022-08-09T03:57:17.907Z,99.90
2022-08-09T03:59:54.587Z,99.90
2022-08-09T04:02:28.181Z,99.90
2022-08-09T04:05:00.714Z,99.90
2022-08-09T04:07:47.695Z,99.90
2022-08-09T04:10:28.794Z,99.90
2022-08-09T04:13:01.022Z,99.90
2022-08-09T04:16:17.219Z,99.90
2022-08-09T04:18:21.255Z,99.90
2022-08-09T04:20:51.322Z,99.90
2022-08-09T04:23:23.185Z,99.90
2022-08-09T04:25:54.252Z,99.90
2022-08-09T04:28:30.687Z,99.90
2022-08-09T04:31:07.930Z,99.90
2022-08-09T04:33:51.708Z,99.90
2022-08-09T04:36:23.452Z,99.90
2022-08-09T04:38:55.118Z,99.90
2022-08-09T04:41:24.393Z,99.90
2022-08-09T04:44:06.865Z,99.90
2022-08-09T04:46:57.473Z,99.90
2022-08-09T04:49:53.881Z,99.90
2022-08-09T04:52:32.448Z,99.90
2022-08-09T04:55:04.461Z,99.90
2022-08-09T04:57:58.596Z,99.90
2022-08-09T05:00:23.992Z,99.90
2022-08-09T05:02:52.651Z,99.90
2022-08-09T05:05:31.508Z,99.90
2022-08-09T05:08:10.186Z,99.90
2022-08-09T05:10:44.879Z,99.90
2022-08-09T05:13:13.158Z,99.90
2022-08-09T05:15:47.913Z,99.90
2022-08-09T05:18:39.766Z,99.90
2022-08-09T05:21:13.485Z,99.90
2022-08-09T05:23:58.018Z,99.90
2022-08-09T05:26:37.524Z,99.90
2022-08-09T05:29:21.453Z,99.90
2022-08-09T05:31:57.155Z,99.90
2022-08-09T05:34:31.067Z,95.50
2022-08-09T05:37:04.993Z,89.70
2022-08-09T05:39:43.188Z,79.50
2022-08-09T05:42:17.393Z,73.20
2022-08-09T05:44:51.754Z,67.70
2022-08-09T05:47:21.707Z,64.00
2022-08-09T05:50:31.205Z,62.30
2022-08-09T05:52:42.064Z,59.30
2022-08-09T05:55:20.919Z,58.40
2022-08-09T05:57:57.663Z,57.90
2022-08-09T06:00:29.068Z,55.00
2022-08-09T06:02:58.702Z,52.70
2022-08-09T06:05:31.255Z,50.60
2022-08-09T06:08:19.344Z,46.60
2022-08-09T06:10:52.126Z,45.10
2022-08-09T06:13:21.770Z,44.50
2022-08-09T06:15:52.384Z,42.80
2022-08-09T06:18:24.891Z,41.50
2022-08-09T06:20:57.243Z,40.60
2022-08-09T06:23:58.110Z,40.20
2022-08-09T06:26:15.327Z,39.20
2022-08-09T06:29:00.746Z,37.50
2022-08-09T06:31:40.567Z,37.10
2022-08-09T06:34:26.040Z,35.70
2022-08-09T06:36:59.585Z,36.20
2022-08-09T06:39:48.775Z,34.10
2022-08-09T06:42:19.878Z,33.50
2022-08-09T06:44:51.819Z,32.50
2022-08-09T06:47:23.565Z,31.40
2022-08-09T06:50:14.729Z,31.30
2022-08-09T06:52:45.905Z,31.20
2022-08-09T06:55:16.982Z,30.20
2022-08-09T06:58:03.308Z,29.70
2022-08-09T07:00:54.584Z,30.10
2022-08-09T07:03:28.101Z,29.80
2022-08-09T07:06:04.075Z,29.10
2022-08-09T07:08:37.112Z,28.90
2022-08-09T07:11:07.795Z,28.10
2022-08-09T07:14:03.957Z,28.20
2022-08-09T07:16:43.462Z,27.50
2022-08-09T07:19:22.906Z,26.50
2022-08-09T07:21:56.920Z,26.20
2022-08-09T07:24:32.918Z,26.70
2022-08-09T07:27:10.957Z,26.60
2022-08-09T07:29:57.097Z,27.10
2022-08-09T07:32:33.079Z,27.00
2022-08-09T07:35:07.961Z,26.70
2022-08-09T07:37:42.919Z,26.40
2022-08-09T07:40:17.342Z,26.30
2022-08-09T07:42:55.462Z,26.20
2022-08-09T07:45:39.937Z,25.80
2022-08-09T07:48:25.567Z,25.40
2022-08-09T07:51:02.995Z,25.50
2022-08-09T07:54:07.567Z,25.20
2022-08-09T07:56:27.918Z,25.10
2022-08-09T07:58:59.787Z,24.20
2022-08-09T08:01:34.047Z,23.30
2022-08-09T08:04:04.824Z,24.30
2022-08-09T08:06:45.440Z,23.80
2022-08-09T08:09:41.207Z,23.90
2022-08-09T08:12:27.569Z,23.90
2022-08-09T08:14:57.845Z,23.60
2022-08-09T08:17:52.260Z,23.90
2022-08-09T08:20:17.474Z,23.60
2022-08-09T08:22:48.419Z,22.70
2022-08-09T08:25:16.903Z,22.10
2022-08-09T08:27:49.986Z,21.80
2022-08-09T08:30:19.458Z,22.10
2022-08-09T08:32:52.652Z,22.50
2022-08-09T08:35:23.888Z,22.40
2022-08-09T08:38:01.877Z,23.10
2022-08-09T08:40:34.384Z,22.50
2022-08-09T08:43:08.972Z,21.90
2022-08-09T08:45:53.361Z,21.60
2022-08-09T08:48:29.103Z,21.00
2022-08-09T08:51:01.437Z,21.10
2022-08-09T08:53:36.989Z,21.40
2022-08-09T08:56:07.583Z,21.40
2022-08-09T08:58:54.360Z,20.50
2022-08-09T09:01:25.048Z,20.60
2022-08-09T09:04:05.498Z,19.90
2022-08-09T09:06:39.747Z,19.50
2022-08-09T09:09:21.251Z,20.00
2022-08-09T09:12:01.041Z,19.50
2022-08-09T09:14:33.392Z,19.30
2022-08-09T09:17:02.722Z,18.30
2022-08-09T09:19:41.973Z,17.90
2022-08-09T09:22:15.920Z,18.00
2022-08-09T09:24:47.511Z,18.20
2022-08-09T09:28:04.141Z,19.00
2022-08-09T09:30:35.961Z,19.00
2022-08-09T09:33:15.990Z,19.40
2022-08-09T09:36:02.459Z,19.00
2022-08-09T09:38:46.585Z,18.40
2022-08-09T09:41:32.524Z,17.40
2022-08-09T09:44:11.547Z,16.90
2022-08-09T09:46:46.209Z,16.80
2022-08-09T09:49:32.060Z,17.00
2022-08-09T09:52:16.449Z,16.70
2022-08-09T09:55:27.513Z,16.90
2022-08-09T09:58:16.862Z,16.80
2022-08-09T10:00:52.638Z,16.70
2022-08-09T10:03:56.407Z,15.80
2022-08-09T10:06:28.610Z,15.60
2022-08-09T10:09:21.622Z,15.10
2022-08-09T10:12:26.790Z,14.50
2022-08-09T10:14:49.007Z,14.50
2022-08-09T10:17:39.637Z,14.40
2022-08-09T10:20:35.389Z,14.30
2022-08-09T10:23:19.948Z,13.10
2022-08-09T10:26:06.184Z,12.90
2022-08-09T10:28:40.738Z,12.80
2022-08-09T10:34:10.409Z,12.70
2022-08-09T10:36:50.067Z,12.90
2022-08-09T10:39:19.929Z,11.70
2022-08-09T10:41:48.603Z,12.00
2022-08-09T10:44:26.299Z,11.60
2022-08-09T10:48:19.424Z,10.20
2022-08-09T10:50:49.059Z,9.70
2022-08-09T10:53:54.738Z,9.60
2022-08-09T10:56:26.844Z,10.60
2022-08-09T10:58:57.652Z,10.40
2022-08-09T11:03:15.880Z,10.50
2022-08-09T11:04:32.836Z,11.60
2022-08-09T11:07:57.007Z,11.60
2022-08-09T11:10:56.300Z,10.40
2022-08-09T11:13:50.967Z,10.50
2022-08-09T11:16:48.332Z,11.90
2022-08-09T11:20:11.650Z,12.50
2022-08-09T11:23:03.001Z,12.10
2022-08-09T11:25:47.377Z,11.80
2022-08-09T11:28:53.959Z,11.80
2022-08-09T11:31:49.202Z,11.90
2022-08-09T11:34:36.420Z,12.10
2022-08-09T11:37:07.601Z,12.10
2022-08-09T11:40:03.088Z,11.20
2022-08-09T11:42:49.060Z,10.90
2022-08-09T11:45:42.000Z,10.90
2022-08-09T11:48:26.969Z,11.60
2022-08-09T11:52:56.458Z,11.50
2022-08-09T11:54:28.202Z,11.50
2022-08-09T11:58:00.166Z,11.40
2022-08-09T12:00:29.522Z,11.20
2022-08-09T12:03:31.827Z,10.80
2022-08-09T12:05:52.445Z,10.90
2022-08-09T12:08:25.062Z,10.90
2022-08-09T12:10:57.228Z,10.60
2022-08-09T12:14:10.711Z,10.90
2022-08-09T12:16:37.667Z,10.60
2022-08-09T12:19:09.228Z,9.60
2022-08-09T12:21:50.601Z,9.70
2022-08-09T12:24:24.920Z,10.10
2022-08-09T12:29:11.995Z,11.10
2022-08-09T12:30:04.108Z,10.70
2022-08-09T12:32:45.195Z,11.20
2022-08-09T12:35:21.765Z,11.30
2022-08-09T12:37:52.282Z,10.90
2022-08-09T12:40:27.217Z,11.30
2022-08-09T12:42:57.087Z,12.30
2022-08-09T12:45:32.173Z,13.00
2022-08-09T12:48:04.763Z,12.80
2022-08-09T12:50:35.581Z,12.30
2022-08-09T12:53:18.230Z,13.10
2022-08-09T12:56:15.072Z,14.20
2022-08-09T12:58:42.999Z,13.00
2022-08-09T13:01:28.273Z,12.70
2022-08-09T13:04:01.778Z,12.40
2022-08-09T13:06:35.596Z,12.20
2022-08-09T13:09:12.687Z,11.90
2022-08-09T13:11:45.715Z,11.50
2022-08-09T13:14:42.307Z,12.20
2022-08-09T13:17:15.996Z,12.40
2022-08-09T13:20:10.636Z,11.60
2022-08-09T13:23:04.721Z,10.80
2022-08-09T13:25:24.182Z,10.60
2022-08-09T13:27:56.065Z,10.50
2022-08-09T13:30:50.934Z,10.80
2022-08-09T13:33:24.759Z,11.60
2022-08-09T13:36:41.604Z,12.30
2022-08-09T13:39:08.229Z,11.70
2022-08-09T13:41:54.906Z,11.40
2022-08-09T13:44:29.614Z,11.90
2022-08-09T13:47:27.737Z,12.80
2022-08-09T13:49:56.266Z,13.30
2022-08-09T13:52:30.450Z,13.40
2022-08-09T13:55:05.091Z,12.70
2022-08-09T13:57:39.659Z,12.50
2022-08-09T14:00:15.903Z,11.70
2022-08-09T14:03:02.936Z,12.10
2022-08-09T14:05:56.744Z,12.10
2022-08-09T14:08:23.819Z,12.00
2022-08-09T14:10:55.210Z,13.30
2022-08-09T14:13:27.936Z,12.30
2022-08-09T14:16:17.614Z,11.80
2022-08-09T14:18:51.713Z,11.20
2022-08-09T14:21:22.626Z,11.30
2022-08-09T14:23:56.884Z,11.80
2022-08-09T14:26:30.508Z,12.00
2022-08-09T14:29:03.080Z,12.50
2022-08-09T14:31:50.159Z,12.80
2022-08-09T14:34:31.537Z,13.00
2022-08-09T14:37:06.698Z,13.40
2022-08-09T14:39:40.129Z,13.80
2022-08-09T14:42:30.332Z,13.30
2022-08-09T14:46:40.465Z,13.00
2022-08-09T14:47:57.211Z,12.20
2022-08-09T14:50:29.124Z,12.20
2022-08-09T14:52:57.669Z,12.30
2022-08-09T14:55:29.240Z,12.30
2022-08-09T14:58:05.233Z,12.50
2022-08-09T15:00:36.656Z,12.60
2022-08-09T15:03:09.042Z,12.30
2022-08-09T15:05:40.297Z,12.70
2022-08-09T15:08:20.905Z,12.50
2022-08-09T15:11:00.407Z,12.70
2022-08-09T15:13:56.417Z,12.60
2022-08-09T15:16:18.113Z,12.70
2022-08-09T15:18:49.005Z,12.00
2022-08-09T15:21:55.465Z,12.10
2022-08-09T15:24:12.683Z,12.70
2022-08-09T15:26:45.957Z,13.50
2022-08-09T15:30:48.926Z,13.00
2022-08-09T15:32:03.528Z,12.50
2022-08-09T15:34:35.465Z,12.90
2022-08-09T15:37:24.482Z,12.80
2022-08-09T15:40:11.730Z,12.70
2022-08-09T15:42:42.762Z,12.80
2022-08-09T15:45:14.108Z,13.10
2022-08-09T15:48:03.351Z,13.10
2022-08-09T15:50:38.926Z,13.10
2022-08-09T15:54:02.267Z,13.10
2022-08-09T15:56:20.954Z,13.40
2022-08-09T15:58:46.502Z,13.50
2022-08-09T16:01:14.949Z,14.00
2022-08-09T16:03:43.520Z,13.60
2022-08-09T16:06:29.403Z,13.60
2022-08-09T16:09:03.343Z,13.90
2022-08-09T16:11:33.891Z,13.80
2022-08-09T16:14:06.930Z,14.20
2022-08-09T16:16:37.197Z,14.50
2022-08-09T16:19:08.620Z,14.80
2022-08-09T16:21:39.194Z,14.90
2022-08-09T16:24:29.920Z,15.10
2022-08-09T16:26:57.537Z,14.80
2022-08-09T16:29:37.101Z,15.00
2022-08-09T16:32:33.229Z,15.20
2022-08-09T16:35:02.518Z,15.40
2022-08-09T16:37:55.354Z,15.30
2022-08-09T16:40:40.076Z,15.20
2022-08-09T16:43:09.763Z,15.30
2022-08-09T16:45:44.261Z,15.40
2022-08-09T16:48:42.405Z,15.10
2022-08-09T16:51:08.500Z,15.60
2022-08-09T16:54:09.029Z,15.60
2022-08-09T16:56:33.031Z,16.10
2022-08-09T16:59:06.895Z,16.00
2022-08-09T17:01:38.992Z,16.10
2022-08-09T17:04:10.694Z,15.60
2022-08-09T17:08:40.653Z,15.50
2022-08-09T17:09:45.440Z,16.00
2022-08-09T17:12:15.218Z,16.10
2022-08-09T17:14:47.937Z,16.30
2022-08-09T17:17:26.719Z,16.50
2022-08-09T17:20:32.614Z,16.40
2022-08-09T17:22:49.847Z,16.50
2022-08-09T17:25:23.675Z,16.50
2022-08-09T17:27:54.680Z,16.60
2022-08-09T17:30:26.491Z,16.70
2022-08-09T17:33:04.839Z,16.80
2022-08-09T17:35:41.095Z,16.70
2022-08-09T17:38:31.939Z,16.60
2022-08-09T17:41:03.280Z,16.70
2022-08-09T17:43:37.367Z,16.70
2022-08-09T17:46:09.091Z,16.80
2022-08-09T17:48:51.595Z,16.80
2022-08-09T17:51:22.052Z,17.00
2022-08-09T17:53:54.687Z,16.90
2022-08-09T17:56:29.165Z,17.10
2022-08-09T17:59:11.510Z,17.20
2022-08-09T18:01:57.702Z,17.10
2022-08-09T18:04:28.308Z,17.00
2022-08-09T18:06:57.454Z,17.30
2022-08-09T18:09:40.987Z,17.40
2022-08-09T18:12:15.501Z,17.20
2022-08-09T18:14:49.805Z,17.50
2022-08-09T18:17:27.559Z,18.10
2022-08-09T18:20:59.656Z,18.30
2022-08-09T18:23:04.952Z,18.60
2022-08-09T18:25:51.181Z,18.60
2022-08-09T18:30:38.342Z,18.70
2022-08-09T18:31:14.985Z,18.70
2022-08-09T18:33:53.941Z,19.10
2022-08-09T18:36:25.653Z,19.20
2022-08-09T18:39:02.521Z,19.40
2022-08-09T18:41:34.783Z,19.50
2022-08-09T18:44:12.386Z,19.70
2022-08-09T18:46:50.447Z,19.90
2022-08-09T18:49:32.224Z,20.10
2022-08-09T18:52:10.242Z,20.20
2022-08-09T18:54:49.691Z,20.40
2022-08-09T18:57:23.085Z,20.60
2022-08-09T18:59:57.581Z,20.60
2022-08-09T19:02:32.237Z,20.80
2022-08-09T19:05:14.255Z,21.10
2022-08-09T19:07:59.169Z,21.10
2022-08-09T19:10:39.281Z,21.50
2022-08-09T19:13:22.035Z,22.30
2022-08-09T19:15:55.692Z,22.70
2022-08-09T19:18:32.938Z,23.70
2022-08-09T19:21:03.466Z,24.20
2022-08-09T19:24:37.832Z,24.80
2022-08-09T19:26:29.192Z,25.20
2022-08-09T19:29:03.168Z,25.60
2022-08-09T19:31:44.012Z,26.10
2022-08-09T19:34:22.062Z,26.30
2022-08-09T19:36:52.431Z,26.70
2022-08-09T19:39:29.116Z,26.90
2022-08-09T19:42:15.225Z,27.20
2022-08-09T19:44:50.684Z,27.50
2022-08-09T19:47:23.754Z,27.30
2022-08-09T19:50:08.042Z,27.20
2022-08-09T19:52:51.568Z,27.40
2022-08-09T19:55:30.569Z,27.20
2022-08-09T19:57:59.474Z,27.20
2022-08-09T20:00:27.615Z,27.20
2022-08-09T20:04:09.656Z,27.30
2022-08-09T20:05:50.503Z,27.80
2022-08-09T20:08:25.095Z,27.10
2022-08-09T20:11:04.471Z,27.50
2022-08-09T20:13:36.946Z,27.70
2022-08-09T20:16:38.149Z,27.80
2022-08-09T20:19:42.078Z,27.70
2022-08-09T20:21:54.822Z,27.70
2022-08-09T20:24:31.971Z,27.80
2022-08-09T20:27:05.790Z,27.90
2022-08-09T20:29:38.603Z,28.00
2022-08-09T20:32:29.195Z,28.10
2022-08-09T20:34:59.840Z,28.00
2022-08-09T20:37:37.854Z,28.10
2022-08-09T20:40:24.837Z,28.20
2022-08-09T20:42:59.747Z,28.40
2022-08-09T20:45:59.837Z,28.80
2022-08-09T20:48:21.176Z,29.10
2022-08-09T20:50:55.755Z,29.30
2022-08-09T20:53:35.373Z,29.30
2022-08-09T20:56:20.992Z,29.20
2022-08-09T20:58:58.028Z,29.30
2022-08-09T21:01:34.725Z,29.80
2022-08-09T21:05:54.125Z,30.70
2022-08-09T21:07:11.618Z,31.60
2022-08-09T21:09:45.329Z,31.80
2022-08-09T21:14:49.206Z,32.00
2022-08-09T21:18:20.877Z,32.30
2022-08-09T21:20:23.119Z,32.80
2022-08-09T21:22:56.008Z,33.30
2022-08-09T21:25:44.502Z,33.50
2022-08-09T21:28:33.362Z,33.60
2022-08-09T21:31:02.077Z,33.90
2022-08-09T21:33:50.931Z,34.20
2022-08-09T21:36:23.033Z,35.10
2022-08-09T21:38:57.602Z,36.70
2022-08-09T21:42:05.033Z,37.90
2022-08-09T21:44:33.903Z,38.90
2022-08-09T21:47:05.298Z,39.90
2022-08-09T21:49:39.910Z,40.90
2022-08-09T21:52:16.944Z,41.10
2022-08-09T21:54:56.928Z,41.20
2022-08-09T21:57:38.249Z,42.10
2022-08-09T22:00:26.857Z,42.50
2022-08-09T22:03:04.590Z,42.80
2022-08-09T22:05:35.431Z,43.40
2022-08-09T22:08:12.884Z,44.40
2022-08-09T22:11:49.712Z,45.00
2022-08-09T22:13:35.482Z,46.60
2022-08-09T22:16:08.331Z,47.40
2022-08-09T22:18:38.358Z,50.80
2022-08-09T22:21:09.886Z,54.10
2022-08-09T22:24:01.235Z,58.10
2022-08-09T22:26:35.464Z,62.60
2022-08-09T22:29:09.278Z,69.20
2022-08-09T22:31:44.569Z,74.30
2022-08-09T22:34:25.717Z,79.30
2022-08-09T22:36:54.711Z,88.40
2022-08-09T22:39:55.780Z,94.50
2022-08-09T22:42:21.402Z,99.90
2022-08-09T22:48:06.113Z,99.90
2022-08-09T22:48:33.823Z,99.90
2022-08-09T22:50:29.513Z,99.90
2022-08-09T22:52:58.621Z,99.90
2022-08-09T22:55:39.749Z,99.90
2022-08-09T22:58:30.710Z,99.90
2022-08-09T23:01:02.090Z,99.90
2022-08-09T23:04:04.732Z,99.90
2022-08-09T23:06:29.879Z,99.90
2022-08-09T23:09:05.363Z,99.90
2022-08-09T23:11:33.772Z,99.90
2022-08-09T23:14:04.059Z,99.90
2022-08-09T23:16:38.032Z,99.90
2022-08-09T23:19:06.143Z,99.90
2022-08-09T23:21:34.720Z,99.90
2022-08-09T23:24:07.115Z,99.90
2022-08-09T23:26:36.240Z,99.90
2022-08-09T23:29:08.112Z,99.90
2022-08-09T23:31:36.869Z,99.90
2022-08-09T23:34:05.203Z,99.90
2022-08-09T23:36:35.167Z,99.90
2022-08-09T23:39:06.367Z,99.90
2022-08-09T23:41:35.098Z,99.90
2022-08-09T23:44:05.789Z,99.90
2022-08-09T23:46:35.338Z,99.90
2022-08-09T23:49:03.580Z,99.90
2022-08-09T23:51:31.948Z,99.90
2022-08-09T23:54:02.278Z,99.90
2022-08-09T23:56:52.207Z,99.90
2022-08-09T23:59:21.615Z,99.90
